Terminal Aerodrome Forecast
Issued by NWS

Home | Current Version | Previous Version | Text Only | Print | Product List | Glossary On
Versions: 1 2 3 4 5 6 7 8 9 10 11 12 13 14 15 16
206
FTUS44 KCRP 292335
TAFALI
TAF
KALI 292335Z 3000/3024 12015G22KT P6SM SCT050
      TEMPO 3003/3006 BKN025
     FM300600 34015G25KT P6SM OVC040
     FM301500 35012G18KT P6SM SCT150
     FM302100 33010KT P6SM FEW250=

USA.gov is the U.S. government's official web portal to all federal, state and local government web resources and services.